»·PEaware :: N434EP KHND-KPHX

N434EP :: KHND-KPHX

FLIGHT INFORMATION

Flight Status: Arrived
Operator: Privately registered:
United States
More flights under this callsign
Pilot: Drew H. (3199)
Aircraft: Unknown
(VIPJ)
More flights by this aircraft type
Origin: KHND Henderson
United States
Destination: KPHX Phoenix Sky Harbor Intl
United States
More flights between these airports :: More routes between these airports
Route: PALLY5 DRK MAIER MAIER5
File this flight plan on PilotEdge
Remarks:
Altitude:
(Current/Filed)
19,000ft
Speed:
(Current/Filed)
400kts
Departed: 29-Apr-18 09:45 PM
Arrived: 29-Apr-18 10:31 PM
Distance/Time
Traveled:
217nm/0:46
Distance/Time
To Go:
Arrived

Flight Plot

Page will automatically refresh every two minutes.

Flight plan parsing failed; only flown route is shown


Map Options




Map Legend


Flown Route
Filed Route
Departure Airport
Arrival Airport
Navaid (VOR, NDB)
Fix

Horizontal Profiles

Position Reports

Time Latitude Longitude Heading Altitude Ground
Speed
29-Apr-18 21:34 35.970789 -115.137286 85 2496ft 0kts
29-Apr-18 21:35 35.970789 -115.137286 85 2496ft 0kts
29-Apr-18 21:35 35.970789 -115.137286 85 2496ft 0kts
29-Apr-18 21:36 35.970789 -115.137286 85 2496ft 0kts
29-Apr-18 21:37 35.970789 -115.137286 85 2496ft 0kts
29-Apr-18 21:38 35.970789 -115.137286 85 2496ft 0kts
29-Apr-18 21:40 35.970789 -115.137286 85 2496ft 0kts
29-Apr-18 21:41 35.970789 -115.137286 85 2496ft 0kts
29-Apr-18 21:41 35.970789 -115.137286 85 2496ft 0kts
29-Apr-18 21:42 35.973133 -115.136435 0 2496ft 23kts
29-Apr-18 21:43 35.980672 -115.136317 29 2496ft 4kts
29-Apr-18 21:44 35.978638 -115.135346 180 2496ft 68kts
29-Apr-18 21:45 35.939232 -115.140363 215 5494ft 164kts
29-Apr-18 21:46 35.901246 -115.163305 174 9378ft 172kts
29-Apr-18 21:47 35.846654 -115.155983 175 12043ft 250kts
29-Apr-18 21:48 35.773646 -115.170477 215 15755ft 277kts
29-Apr-18 21:49 35.709034 -115.216230 167 18988ft 299kts
29-Apr-18 21:50 35.674575 -115.116826 84 19044ft 394kts
29-Apr-18 21:51 35.653911 -114.986754 113 19008ft 435kts
29-Apr-18 21:52 35.604097 -114.850267 114 19002ft 433kts
29-Apr-18 21:53 35.555223 -114.717194 114 19005ft 423kts
29-Apr-18 21:54 35.506863 -114.586067 114 19006ft 420kts
29-Apr-18 21:55 35.458597 -114.455750 114 19007ft 419kts
29-Apr-18 21:56 35.410603 -114.326687 114 19007ft 419kts
29-Apr-18 21:57 35.363642 -114.200907 114 19009ft 421kts
29-Apr-18 21:58 35.315705 -114.073020 114 19008ft 426kts
29-Apr-18 21:59 35.266127 -113.941288 114 19007ft 428kts
29-Apr-18 22:00 35.216125 -113.808977 114 19006ft 428kts
29-Apr-18 22:01 35.166059 -113.677022 114 19007ft 429kts
29-Apr-18 22:02 35.115773 -113.545052 114 19007ft 429kts
29-Apr-18 22:03 35.065370 -113.413296 114 19007ft 428kts
29-Apr-18 22:04 35.015505 -113.283475 115 19007ft 427kts
29-Apr-18 22:05 34.964802 -113.152014 115 19007ft 428kts
29-Apr-18 22:06 34.914041 -113.020898 115 19007ft 429kts
29-Apr-18 22:07 34.868776 -112.904454 115 19007ft 429kts
29-Apr-18 22:08 34.817719 -112.773595 115 19007ft 429kts
29-Apr-18 22:09 34.766372 -112.642511 115 19007ft 429kts
29-Apr-18 22:10 34.714916 -112.511669 115 19007ft 429kts
29-Apr-18 22:11 34.632136 -112.411161 141 19008ft 429kts
29-Apr-18 22:12 34.540017 -112.321367 141 19007ft 429kts
29-Apr-18 22:13 34.456700 -112.240160 141 18996ft 351kts
29-Apr-18 22:14 34.363636 -112.208766 167 17635ft 357kts
29-Apr-18 22:15 34.268628 -112.184156 168 15622ft 340kts
29-Apr-18 22:16 34.178510 -112.160873 167 13621ft 328kts
29-Apr-18 22:17 34.093890 -112.139057 168 12994ft 294kts
29-Apr-18 22:18 34.013088 -112.118534 168 11118ft 294kts
29-Apr-18 22:19 33.934593 -112.098659 168 10004ft 286kts
29-Apr-18 22:20 33.857778 -112.079242 168 10007ft 287kts
29-Apr-18 22:21 33.778858 -112.059308 168 10007ft 292kts
29-Apr-18 22:22 33.703900 -112.024844 146 9009ft 276kts
29-Apr-18 22:23 33.644852 -111.974263 142 7136ft 246kts
29-Apr-18 22:24 33.590691 -111.934903 179 5926ft 210kts
29-Apr-18 22:25 33.532964 -111.934554 179 5448ft 219kts
29-Apr-18 22:26 33.474844 -111.932785 179 3624ft 188kts
29-Apr-18 22:27 33.433078 -111.941008 232 2099ft 127kts
29-Apr-18 22:28 33.428863 -111.977509 270 1587ft 115kts
29-Apr-18 22:29 33.428856 -112.012218 269 1138ft 76kts
29-Apr-18 22:30 33.427651 -112.024159 215 1138ft 12kts
29-Apr-18 22:31 33.426845 -112.023525 6 1138ft 0kts

Navigation Log

Ident Type
Flight plan parsing failed, navigation log unavailable